createdAt,value
2023-04-20T00:02:54.902Z,7.25
2023-04-20T00:08:13.788Z,7.21
2023-04-20T00:13:06.185Z,7.16
2023-04-20T00:18:06.235Z,7.14
2023-04-20T00:23:06.047Z,7.17
2023-04-20T00:28:05.972Z,7.25
2023-04-20T00:33:05.944Z,7.34
2023-04-20T00:38:05.855Z,7.44
2023-04-20T00:43:05.798Z,7.54
2023-04-20T00:48:05.739Z,7.64
2023-04-20T00:53:05.651Z,7.73
2023-04-20T00:58:05.586Z,7.81
2023-04-20T01:03:05.635Z,7.86
2023-04-20T01:08:05.422Z,7.85
2023-04-20T01:13:05.418Z,7.79
2023-04-20T01:18:05.446Z,7.70
2023-04-20T01:23:05.260Z,7.60
2023-04-20T01:28:05.235Z,7.52
2023-04-20T01:33:05.169Z,7.47
2023-04-20T01:38:05.077Z,7.45
2023-04-20T01:43:04.971Z,7.46
2023-04-20T01:48:05.011Z,7.47
2023-04-20T01:53:04.866Z,7.49
2023-04-20T01:58:04.843Z,7.52
2023-04-20T02:03:04.859Z,7.55
2023-04-20T02:08:04.678Z,7.57
2023-04-20T02:13:04.599Z,7.57
2023-04-20T02:18:04.584Z,7.55
2023-04-20T02:23:04.473Z,7.52
2023-04-20T02:28:04.419Z,7.46
2023-04-20T02:33:04.348Z,7.36
2023-04-20T02:38:04.280Z,7.25
2023-04-20T02:43:04.202Z,7.15
2023-04-20T02:48:04.198Z,7.09
2023-04-20T02:53:04.043Z,7.06
2023-04-20T02:58:04.000Z,7.04
2023-04-20T03:03:04.063Z,7.05
2023-04-20T03:08:03.909Z,7.06
2023-04-20T03:13:03.819Z,7.08
2023-04-20T03:18:03.807Z,7.11
2023-04-20T03:23:03.731Z,7.13
2023-04-20T03:28:03.647Z,7.16
2023-04-20T03:33:03.539Z,7.18
2023-04-20T03:38:03.525Z,7.20
2023-04-20T03:43:03.404Z,7.19
2023-04-20T03:48:03.407Z,7.15
2023-04-20T03:53:03.620Z,7.09
2023-04-20T03:58:03.220Z,7.04
2023-04-20T04:03:03.320Z,7.01
2023-04-20T04:08:03.105Z,6.97
2023-04-20T04:13:03.003Z,6.91
2023-04-20T04:18:17.470Z,6.83
2023-04-20T04:23:09.874Z,6.72
2023-04-20T04:28:09.821Z,6.63
2023-04-20T04:33:09.754Z,6.57
2023-04-20T04:38:09.683Z,6.51
2023-04-20T04:43:09.662Z,6.47
2023-04-20T04:48:09.602Z,6.45
2023-04-20T04:53:09.496Z,6.44
2023-04-20T04:58:09.439Z,6.43
2023-04-20T05:03:09.450Z,6.43
2023-04-20T05:08:09.265Z,6.44
2023-04-20T05:13:09.225Z,6.46
2023-04-20T05:18:09.218Z,6.48
2023-04-20T05:23:09.104Z,6.51
2023-04-20T05:28:09.037Z,6.55
2023-04-20T05:33:08.988Z,6.60
2023-04-20T05:38:08.884Z,6.65
2023-04-20T05:43:08.809Z,6.73
2023-04-20T05:48:08.742Z,6.81
2023-04-20T05:53:08.688Z,6.90
2023-04-20T05:58:08.603Z,6.99
2023-04-20T06:03:08.744Z,7.09
2023-04-20T06:08:08.458Z,7.23
2023-04-20T06:13:08.402Z,7.37
2023-04-20T06:18:08.394Z,7.50
2023-04-20T06:23:08.313Z,7.67
2023-04-20T06:28:08.205Z,7.94
2023-04-20T06:33:09.199Z,8.24
2023-04-20T06:38:08.232Z,8.52
2023-04-20T06:43:08.043Z,8.78
2023-04-20T06:48:17.162Z,9.01
2023-04-20T06:53:08.917Z,9.11
2023-04-20T06:58:07.816Z,9.07
2023-04-20T07:03:07.956Z,8.96
2023-04-20T07:08:07.678Z,8.78
2023-04-20T07:13:07.622Z,8.56
2023-04-20T07:18:07.607Z,8.30
2023-04-20T07:23:07.525Z,8.07
2023-04-20T07:28:07.413Z,7.88
2023-04-20T07:33:07.471Z,7.77
2023-04-20T07:38:07.310Z,7.74
2023-04-20T07:43:07.254Z,7.76
2023-04-20T07:48:07.254Z,7.84
2023-04-20T07:53:07.222Z,7.95
2023-04-20T07:58:07.192Z,8.05
2023-04-20T08:03:07.152Z,8.11
2023-04-20T08:08:06.946Z,8.12
2023-04-20T08:13:06.885Z,8.10
2023-04-20T08:18:06.836Z,8.06
2023-04-20T08:23:06.753Z,8.02
2023-04-20T08:28:11.759Z,7.99
2023-04-20T08:33:07.603Z,8.04
2023-04-20T08:38:06.510Z,8.21
2023-04-20T08:43:06.488Z,8.51
2023-04-20T08:48:06.458Z,9.04
2023-04-20T08:53:06.311Z,9.85
2023-04-20T08:58:06.220Z,10.69
2023-04-20T09:03:06.381Z,11.79
2023-04-20T09:08:06.094Z,13.35
2023-04-20T09:13:06.134Z,14.83
2023-04-20T09:18:06.019Z,15.54
2023-04-20T09:23:05.982Z,15.50
2023-04-20T09:28:05.836Z,15.37
2023-04-20T09:33:05.806Z,15.53
2023-04-20T09:38:05.688Z,15.65
2023-04-20T09:43:05.621Z,15.77
2023-04-20T09:48:05.629Z,15.65
2023-04-20T09:53:05.567Z,15.10
2023-04-20T09:58:05.480Z,14.39
2023-04-20T10:03:05.496Z,13.69
2023-04-20T10:08:05.375Z,13.19
2023-04-20T10:13:05.275Z,12.92
2023-04-20T10:18:05.224Z,12.72
2023-04-20T10:23:05.159Z,12.37
2023-04-20T10:28:05.130Z,11.97
2023-04-20T10:33:05.055Z,11.75
2023-04-20T10:38:04.898Z,11.74
2023-04-20T10:43:04.890Z,11.94
2023-04-20T10:48:04.813Z,12.09
2023-04-20T10:53:04.743Z,12.08
2023-04-20T10:58:04.636Z,12.05
2023-04-20T11:03:04.717Z,12.23
2023-04-20T11:08:04.582Z,12.82
2023-04-20T11:13:04.461Z,13.65
2023-04-20T11:18:04.426Z,14.31
2023-04-20T11:23:04.405Z,14.85
2023-04-20T11:28:04.279Z,15.64
2023-04-20T11:33:04.271Z,16.89
2023-04-20T11:38:04.132Z,18.19
2023-04-20T11:43:04.082Z,18.87
2023-04-20T11:48:04.032Z,19.05
2023-04-20T11:53:03.922Z,19.17
2023-04-20T11:58:03.832Z,19.07
2023-04-20T12:03:03.897Z,18.61
2023-04-20T12:08:03.727Z,17.90
2023-04-20T12:13:03.657Z,18.35
2023-04-20T12:18:03.635Z,20.06
2023-04-20T12:23:03.566Z,21.27
2023-04-20T12:28:03.456Z,21.18
2023-04-20T12:33:03.403Z,20.51
2023-04-20T12:38:03.330Z,19.90
2023-04-20T12:43:03.309Z,19.41
2023-04-20T12:48:03.254Z,18.88
2023-04-20T12:53:03.132Z,18.38
2023-04-20T12:58:03.083Z,17.94
2023-04-20T13:03:03.183Z,18.15
2023-04-20T13:08:02.931Z,19.07
2023-04-20T13:13:02.872Z,19.78
2023-04-20T13:18:02.753Z,19.57
2023-04-20T13:23:02.745Z,18.65
2023-04-20T13:28:02.646Z,17.66
2023-04-20T13:33:02.635Z,17.02
2023-04-20T13:38:02.541Z,16.49
2023-04-20T13:43:02.461Z,15.76
2023-04-20T13:48:02.387Z,14.92
2023-04-20T13:53:02.336Z,14.22
2023-04-20T13:58:02.318Z,13.83
2023-04-20T14:03:02.571Z,13.76
2023-04-20T14:08:02.120Z,14.00
2023-04-20T14:13:02.079Z,14.55
2023-04-20T14:18:02.014Z,15.15
2023-04-20T14:23:01.943Z,15.44
2023-04-20T14:28:01.894Z,15.40
2023-04-20T14:33:01.848Z,15.18
2023-04-20T14:38:01.771Z,15.02
2023-04-20T14:43:01.825Z,15.25
2023-04-20T14:48:01.626Z,15.75
2023-04-20T14:53:01.545Z,16.30
2023-04-20T14:58:01.462Z,16.87
2023-04-20T15:03:01.669Z,17.19
2023-04-20T15:08:01.336Z,17.08
2023-04-20T15:13:01.274Z,16.57
2023-04-20T15:18:01.256Z,15.80
2023-04-20T15:23:01.137Z,14.89
2023-04-20T15:28:01.099Z,13.99
2023-04-20T15:33:05.324Z,13.24
2023-04-20T15:38:00.986Z,12.75
2023-04-20T15:43:00.865Z,12.62
2023-04-20T15:48:01.100Z,12.78
2023-04-20T15:53:00.888Z,13.05
2023-04-20T15:58:00.725Z,13.24
2023-04-20T16:03:00.798Z,13.30
2023-04-20T16:08:00.561Z,13.25
2023-04-20T16:13:00.510Z,13.16
2023-04-20T16:18:00.482Z,13.08
2023-04-20T16:23:00.346Z,12.92
2023-04-20T16:28:00.328Z,12.71
2023-04-20T16:33:00.401Z,12.56
2023-04-20T16:38:00.144Z,12.42
2023-04-20T16:43:00.053Z,12.25
2023-04-20T16:48:00.104Z,12.15
2023-04-20T16:52:59.993Z,12.17
2023-04-20T16:57:59.910Z,12.27
2023-04-20T17:02:59.914Z,12.39
2023-04-20T17:07:59.746Z,12.48
2023-04-20T17:12:59.696Z,12.53
2023-04-20T17:17:59.663Z,12.54
2023-04-20T17:22:59.616Z,12.49
2023-04-20T17:27:59.540Z,12.37
2023-04-20T17:32:59.435Z,12.16
2023-04-20T17:37:59.399Z,11.92
2023-04-20T17:42:59.250Z,11.68
2023-04-20T17:47:59.279Z,11.42
2023-04-20T17:52:59.138Z,11.17
2023-04-20T17:57:59.104Z,10.97
2023-04-20T18:02:59.206Z,10.83
2023-04-20T18:07:59.438Z,10.74
2023-04-20T18:12:58.919Z,10.62
2023-04-20T18:17:58.901Z,10.45
2023-04-20T18:22:58.773Z,10.25
2023-04-20T18:27:58.749Z,10.05
2023-04-20T18:32:58.714Z,9.86
2023-04-20T18:37:58.721Z,9.68
2023-04-20T18:42:58.580Z,9.52
2023-04-20T18:47:58.499Z,9.38
2023-04-20T18:52:58.411Z,9.27
2023-04-20T18:57:58.328Z,9.20
2023-04-20T19:02:58.500Z,9.14
2023-04-20T19:07:58.297Z,9.09
2023-04-20T19:12:58.086Z,9.05
2023-04-20T19:17:58.088Z,9.02
2023-04-20T19:22:57.957Z,9.00
2023-04-20T19:27:57.902Z,8.98
2023-04-20T19:32:57.862Z,8.96
2023-04-20T19:37:57.789Z,8.94
2023-04-20T19:42:57.717Z,8.91
2023-04-20T19:47:57.722Z,8.88
2023-04-20T19:52:57.590Z,8.84
2023-04-20T19:57:57.517Z,8.81
2023-04-20T20:02:57.668Z,8.78
2023-04-20T20:07:57.369Z,8.74
2023-04-20T20:12:57.281Z,8.67
2023-04-20T20:17:57.297Z,8.59
2023-04-20T20:22:57.239Z,8.49
2023-04-20T20:27:57.115Z,8.38
2023-04-20T20:32:57.056Z,8.26
2023-04-20T20:37:56.980Z,8.15
2023-04-20T20:42:56.879Z,8.05
2023-04-20T20:47:57.541Z,7.98
2023-04-20T20:52:56.767Z,7.91
2023-04-20T20:57:56.729Z,7.86
2023-04-20T21:02:56.699Z,7.81
2023-04-20T21:07:56.580Z,7.78
2023-04-20T21:12:56.523Z,7.76
2023-04-20T21:17:56.460Z,7.76
2023-04-20T21:22:56.401Z,7.76
2023-04-20T21:27:56.299Z,7.75
2023-04-20T21:32:56.259Z,7.75
2023-04-20T21:37:56.181Z,7.74
2023-04-20T21:42:56.114Z,7.74
2023-04-20T21:47:56.121Z,7.74
2023-04-20T21:52:55.982Z,7.74
2023-04-20T21:57:55.918Z,7.74
2023-04-20T22:02:56.002Z,7.74
2023-04-20T22:07:55.762Z,7.76
2023-04-20T22:12:55.706Z,7.78
2023-04-20T22:17:55.697Z,7.79
2023-04-20T22:22:55.575Z,7.81
2023-04-20T22:27:55.522Z,7.80
2023-04-20T22:32:55.471Z,7.79
2023-04-20T22:37:55.430Z,7.78
2023-04-20T22:42:55.315Z,7.77
2023-04-20T22:47:55.286Z,7.78
2023-04-20T22:52:55.173Z,7.79
2023-04-20T22:57:55.119Z,7.81
2023-04-20T23:02:55.195Z,7.82
2023-04-20T23:07:54.951Z,7.85
2023-04-20T23:12:54.943Z,7.87
2023-04-20T23:17:54.879Z,7.88
2023-04-20T23:22:54.821Z,7.88
2023-04-20T23:27:54.710Z,7.88
2023-04-20T23:32:54.705Z,7.89
2023-04-20T23:37:54.554Z,7.91
2023-04-20T23:42:54.553Z,7.95
2023-04-20T23:47:54.504Z,7.99
2023-04-20T23:52:54.395Z,8.04
2023-04-20T23:57:54.312Z,8.07
